Time;durP1;ratioP1;P1;durP2;ratioP2;P2;SDS_P1;SDS_P2;PMS_P1;PMS_P2;Temp;Humidity;BMP_temperature;BMP_pressure;BME280_temperature;BME280_humidity;BME280_pressure;Samples;Min_cycle;Max_cycle;Signal;HPM_P1;HPM_P2
2023/05/01 00:02:12;;;;;;;3.72;3.05;;;12.30;99.90;;;;;;5093690;28;20173;-59
2023/05/01 00:04:38;;;;;;;3.35;2.92;;;12.30;99.90;;;;;;5093533;28;20165;-59
2023/05/01 00:07:03;;;;;;;3.55;2.72;;;12.20;99.90;;;;;;5092922;28;20165;-59
2023/05/01 00:09:31;;;;;;;6.13;2.80;;;12.00;99.90;;;;;;5093053;28;20174;-59
2023/05/01 00:11:56;;;;;;;5.28;2.70;;;12.20;99.90;;;;;;5093369;28;20227;-52
2023/05/01 00:14:22;;;;;;;4.43;2.97;;;12.20;99.90;;;;;;5093829;28;20197;-56
2023/05/01 00:16:48;;;;;;;3.92;2.67;;;;;;;;;;5093863;28;20172;-56
2023/05/01 00:19:17;;;;;;;6.68;2.70;;;12.20;99.90;;;;;;5093630;28;20173;-58
2023/05/01 00:21:47;;;;;;;6.75;3.00;;;12.20;99.90;;;;;;5093327;28;20177;-58
2023/05/01 00:24:15;;;;;;;3.50;2.80;;;12.30;99.90;;;;;;5093515;28;20223;-56
2023/05/01 00:26:41;;;;;;;3.17;2.83;;;12.30;99.90;;;;;;5093180;28;20162;-58
2023/05/01 00:29:07;;;;;;;3.78;2.47;;;12.30;99.90;;;;;;5093201;28;20166;-45
2023/05/01 00:31:33;;;;;;;5.50;2.95;;;12.30;99.90;;;;;;5093433;28;20173;-47
2023/05/01 00:33:58;;;;;;;4.63;2.90;;;12.30;99.90;;;;;;5093061;28;20577;-45
2023/05/01 00:36:24;;;;;;;4.70;2.67;;;12.40;99.90;;;;;;5093016;28;20184;-45
2023/05/01 00:38:50;;;;;;;4.80;3.22;;;;;;;;;;5093374;28;20170;-45
2023/05/01 00:41:16;;;;;;;5.22;2.83;;;12.30;99.90;;;;;;5092952;28;20165;-44
2023/05/01 00:43:41;;;;;;;3.05;2.45;;;12.40;99.90;;;;;;5093148;28;20215;-45
2023/05/01 00:46:08;;;;;;;4.50;2.60;;;12.40;99.90;;;;;;5092849;28;20161;-46
2023/05/01 00:48:34;;;;;;;5.07;2.85;;;12.40;99.90;;;;;;5093198;28;20576;-45
2023/05/01 00:51:03;;;;;;;4.88;3.10;;;12.40;99.90;;;;;;5092814;28;20231;-45
2023/05/01 00:53:29;;;;;;;3.42;2.55;;;12.40;99.90;;;;;;5092881;28;20226;-45
2023/05/01 00:55:57;;;;;;;4.32;2.72;;;12.40;99.90;;;;;;5092669;28;20237;-47
2023/05/01 00:58:22;;;;;;;3.42;2.90;;;12.30;99.90;;;;;;5092685;28;20169;-54
2023/05/01 01:00:48;;;;;;;5.15;3.10;;;12.30;99.90;;;;;;5093044;28;20573;-58
2023/05/01 01:03:15;;;;;;;4.50;2.63;;;12.40;99.90;;;;;;5092653;28;20624;-58
2023/05/01 01:05:45;;;;;;;5.00;3.05;;;12.40;99.90;;;;;;5092822;28;20181;-56
2023/05/01 01:08:24;;;;;;;5.82;3.00;;;12.30;99.90;;;;;;5092534;28;20609;-58
2023/05/01 01:11:29;;;;;;;4.85;2.67;;;12.40;99.90;;;;;;5092747;28;20212;-54
2023/05/01 01:14:02;;;;;;;5.72;3.67;;;12.40;99.90;;;;;;5091867;28;20650;-57
2023/05/01 01:16:52;;;;;;;4.45;2.72;;;12.40;99.90;;;;;;5092641;28;20181;-58
2023/05/01 01:19:49;;;;;;;3.30;2.88;;;12.40;99.90;;;;;;5092503;28;20197;-55
2023/05/01 01:22:19;;;;;;;6.68;2.85;;;12.40;99.90;;;;;;5092261;28;20180;-58
2023/05/01 01:24:58;;;;;;;4.05;2.78;;;12.40;99.90;;;;;;5092500;28;20172;-59
2023/05/01 01:27:53;;;;;;;3.38;2.90;;;12.40;99.90;;;;;;5092207;28;20173;-58
2023/05/01 01:30:46;;;;;;;3.72;2.67;;;12.30;99.90;;;;;;5092651;28;20161;-56
2023/05/01 01:33:39;;;;;;;2.65;2.45;;;12.40;99.90;;;;;;5092342;28;20746;-56
2023/05/01 01:36:14;;;;;;;4.15;2.65;;;12.40;99.90;;;;;;5091985;28;20637;-45
2023/05/01 01:38:44;;;;;;;4.68;2.95;;;12.40;99.90;;;;;;5091993;28;20602;-45
2023/05/01 01:41:19;;;;;;;4.35;2.40;;;12.40;99.90;;;;;;5092292;28;20246;-46
2023/05/01 01:43:51;;;;;;;4.07;3.08;;;12.40;99.90;;;;;;5091953;28;20168;-45
2023/05/01 01:46:19;;;;;;;3.80;2.75;;;12.40;99.90;;;;;;5092310;28;20162;-45
2023/05/01 01:48:47;;;;;;;3.55;2.85;;;12.40;99.90;;;;;;5090629;28;20176;-44
2023/05/01 01:51:16;;;;;;;3.78;2.85;;;12.40;99.90;;;;;;5091804;28;20165;-45
2023/05/01 01:53:48;;;;;;;3.88;2.65;;;12.40;99.90;;;;;;5092039;28;20534;-45
2023/05/01 01:56:16;;;;;;;4.72;2.72;;;12.30;99.90;;;;;;5091695;28;20208;-45
2023/05/01 01:58:44;;;;;;;4.22;2.78;;;12.40;99.90;;;;;;5091669;28;20165;-45
2023/05/01 02:01:12;;;;;;;4.43;2.72;;;12.30;99.90;;;;;;5090438;28;20676;-45
2023/05/01 02:03:38;;;;;;;4.40;2.63;;;12.40;99.90;;;;;;5091687;28;20161;-45
2023/05/01 02:06:06;;;;;;;4.10;2.55;;;12.30;99.90;;;;;;5091871;28;20651;-45
2023/05/01 02:08:34;;;;;;;6.18;3.20;;;12.30;99.90;;;;;;5091613;28;20622;-45
2023/05/01 02:11:02;;;;;;;3.50;3.03;;;12.30;99.90;;;;;;5091527;28;20307;-45
2023/05/01 02:13:30;;;;;;;4.20;2.88;;;12.30;99.90;;;;;;5091597;28;20617;-45
2023/05/01 02:15:57;;;;;;;3.92;2.95;;;12.30;99.90;;;;;;5091610;28;20235;-45
2023/05/01 02:18:26;;;;;;;4.45;2.78;;;12.30;99.90;;;;;;5091614;28;20172;-45
2023/05/01 02:20:53;;;;;;;3.92;2.58;;;12.30;99.90;;;;;;5091556;28;20204;-45
2023/05/01 02:23:19;;;;;;;6.97;3.22;;;12.30;99.90;;;;;;5092169;28;20176;-44
2023/05/01 02:25:47;;;;;;;3.10;2.78;;;12.30;99.90;;;;;;5091532;28;20178;-45
2023/05/01 02:28:17;;;;;;;3.25;2.45;;;12.30;99.90;;;;;;5091439;28;20170;-45
2023/05/01 02:30:43;;;;;;;4.25;2.83;;;12.30;99.90;;;;;;5091778;28;20683;-44
2023/05/01 02:33:09;;;;;;;3.40;2.72;;;12.30;99.90;;;;;;5095797;28;20207;-44
2023/05/01 02:35:39;;;;;;;7.75;3.10;;;12.20;99.90;;;;;;5095542;28;20240;-45
2023/05/01 02:38:06;;;;;;;4.10;2.55;;;12.30;99.90;;;;;;5095379;28;20165;-45
2023/05/01 02:40:33;;;;;;;6.88;2.92;;;12.30;99.90;;;;;;5095669;28;20580;-45
2023/05/01 02:43:03;;;;;;;3.97;2.88;;;12.30;99.90;;;;;;5095209;28;20165;-44
2023/05/01 02:45:31;;;;;;;3.33;2.85;;;12.30;99.90;;;;;;5095186;28;20206;-45
2023/05/01 02:48:00;;;;;;;5.70;3.22;;;12.30;99.90;;;;;;5095491;28;20169;-44
2023/05/01 02:50:26;;;;;;;3.55;2.97;;;12.30;99.90;;;;;;5095176;28;20523;-45
2023/05/01 02:52:52;;;;;;;4.75;2.70;;;12.30;99.90;;;;;;5095047;28;20254;-45
2023/05/01 02:55:18;;;;;;;3.70;2.75;;;12.30;99.90;;;;;;5095384;28;20200;-49
2023/05/01 02:57:44;;;;;;;6.80;2.72;;;12.30;99.90;;;;;;5095152;28;20165;-59
2023/05/01 03:00:12;;;;;;;4.07;2.80;;;12.30;99.90;;;;;;5094752;28;20257;-51
2023/05/01 03:02:39;;;;;;;4.60;3.03;;;12.30;99.90;;;;;;5095128;28;20175;-49
2023/05/01 03:05:05;;;;;;;6.65;3.28;;;12.30;99.90;;;;;;5094869;28;20166;-50
2023/05/01 03:07:34;;;;;;;6.68;3.00;;;12.40;99.90;;;;;;5094713;28;20661;-53
2023/05/01 03:10:02;;;;;;;5.15;2.90;;;12.40;99.90;;;;;;5095021;28;20165;-55
2023/05/01 03:12:28;;;;;;;3.35;2.72;;;12.40;99.90;;;;;;5094936;28;20184;-49
2023/05/01 03:14:53;;;;;;;4.38;2.60;;;12.40;99.90;;;;;;5094851;28;20241;-54
2023/05/01 03:17:19;;;;;;;6.63;2.80;;;12.40;99.90;;;;;;5095019;28;20609;-56
2023/05/01 03:19:45;;;;;;;5.25;3.40;;;12.40;99.90;;;;;;5094578;28;20177;-55
2023/05/01 03:22:10;;;;;;;4.85;3.30;;;12.40;99.90;;;;;;5094811;28;20230;-55
2023/05/01 03:24:36;;;;;;;4.97;2.95;;;12.40;99.90;;;;;;5094393;28;20617;-52
2023/05/01 03:27:01;;;;;;;3.13;2.83;;;12.40;99.90;;;;;;5094675;28;20180;-56
2023/05/01 03:29:28;;;;;;;4.40;3.22;;;12.40;99.90;;;;;;5094608;28;20169;-56
2023/05/01 03:31:53;;;;;;;4.05;3.38;;;12.40;99.90;;;;;;5094259;28;20655;-55
2023/05/01 03:34:19;;;;;;;3.80;2.90;;;12.50;99.90;;;;;;5094585;28;20166;-57
2023/05/01 03:36:44;;;;;;;4.85;3.35;;;12.40;99.90;;;;;;5094220;28;20181;-58
2023/05/01 03:39:10;;;;;;;5.47;3.72;;;12.40;99.90;;;;;;5094227;28;20180;-59
2023/05/01 03:41:35;;;;;;;4.75;3.47;;;12.40;99.90;;;;;;5094117;28;20172;-48
2023/05/01 03:44:01;;;;;;;3.55;2.83;;;12.40;99.90;;;;;;5094052;28;20244;-57
2023/05/01 03:46:26;;;;;;;7.57;3.70;;;12.40;99.90;;;;;;5094083;28;20252;-53
2023/05/01 03:48:52;;;;;;;6.85;3.30;;;12.40;99.90;;;;;;5094024;28;20208;-54
2023/05/01 03:51:17;;;;;;;4.88;3.50;;;12.40;99.90;;;;;;5094606;28;20164;-59
2023/05/01 03:53:43;;;;;;;5.50;3.30;;;12.40;99.90;;;;;;5092640;28;20201;-52
2023/05/01 03:56:09;;;;;;;4.82;2.83;;;12.40;99.90;;;;;;5093822;28;20619;-58
2023/05/01 03:58:35;;;;;;;4.55;2.80;;;12.40;99.90;;;;;;5093797;28;20215;-57
2023/05/01 04:01:01;;;;;;;4.60;2.78;;;12.40;99.90;;;;;;5093816;28;20180;-48
2023/05/01 04:03:27;;;;;;;2.88;2.60;;;12.30;99.90;;;;;;5093779;28;20191;-50
2023/05/01 04:05:53;;;;;;;3.70;3.35;;;12.30;99.90;;;;;;5093798;28;20177;-49
2023/05/01 04:08:18;;;;;;;3.90;3.08;;;12.30;99.90;;;;;;5094045;28;20530;-53
2023/05/01 04:10:44;;;;;;;4.78;2.95;;;12.30;99.90;;;;;;5093410;28;20207;-58
2023/05/01 04:13:10;;;;;;;5.03;3.80;;;12.30;99.90;;;;;;5093514;28;20165;-59
2023/05/01 04:15:37;;;;;;;4.97;2.90;;;12.20;99.90;;;;;;5093603;28;20209;-52
2023/05/01 04:18:03;;;;;;;4.78;2.95;;;12.30;99.90;;;;;;5093742;28;20170;-58
2023/05/01 04:20:28;;;;;;;5.45;2.90;;;12.30;99.90;;;;;;5093365;28;20180;-51
2023/05/01 04:22:54;;;;;;;5.80;3.13;;;12.30;99.90;;;;;;5093449;28;20165;-52
2023/05/01 04:25:19;;;;;;;5.10;3.55;;;12.20;99.90;;;;;;5093815;28;20238;-45
2023/05/01 04:27:45;;;;;;;6.47;3.28;;;12.30;99.90;;;;;;5093331;28;20165;-45
2023/05/01 04:30:11;;;;;;;5.07;3.28;;;12.30;99.90;;;;;;5093536;28;20252;-45
2023/05/01 04:32:37;;;;;;;4.07;2.92;;;12.20;99.90;;;;;;5093278;28;20204;-45
2023/05/01 04:35:03;;;;;;;4.05;2.95;;;12.30;99.90;;;;;;5093278;28;20242;-45
2023/05/01 04:37:29;;;;;;;7.00;3.30;;;12.20;99.90;;;;;;5093098;28;20242;-45
2023/05/01 04:39:54;;;;;;;4.00;3.05;;;12.30;99.90;;;;;;5093006;28;20271;-45
2023/05/01 04:42:20;;;;;;;4.30;3.20;;;12.30;99.90;;;;;;5093325;28;20174;-45
2023/05/01 04:44:46;;;;;;;5.53;3.25;;;12.30;99.90;;;;;;5092974;28;20168;-45
2023/05/01 04:47:12;;;;;;;4.50;3.58;;;12.30;99.90;;;;;;5092880;28;20180;-44
2023/05/01 04:49:38;;;;;;;5.47;3.55;;;12.20;99.90;;;;;;5093127;28;20730;-44
2023/05/01 04:52:03;;;;;;;3.08;2.58;;;12.30;99.90;;;;;;5092833;28;20177;-46
2023/05/01 04:54:29;;;;;;;5.57;3.58;;;12.30;99.90;;;;;;5092160;28;20200;-48
2023/05/01 04:56:54;;;;;;;4.65;3.55;;;12.30;99.90;;;;;;5092964;28;20176;-49
2023/05/01 04:59:20;;;;;;;3.47;3.10;;;12.30;99.90;;;;;;5092986;28;20153;-55
2023/05/01 05:01:45;;;;;;;5.45;3.22;;;12.40;99.90;;;;;;5092711;28;20263;-56
2023/05/01 05:04:11;;;;;;;5.18;3.08;;;12.40;99.90;;;;;;5092579;28;20168;-57
2023/05/01 05:06:36;;;;;;;4.57;2.92;;;12.40;99.90;;;;;;5092547;28;20187;-54
2023/05/01 05:09:02;;;;;;;3.65;3.08;;;12.40;99.90;;;;;;5092577;28;20162;-52
2023/05/01 05:11:28;;;;;;;4.43;3.10;;;12.40;99.90;;;;;;5092381;28;20572;-57
2023/05/01 05:13:53;;;;;;;7.32;3.65;;;12.40;99.90;;;;;;5092334;28;20165;-56
2023/05/01 05:16:19;;;;;;;5.85;3.25;;;12.40;99.90;;;;;;5092621;28;20560;-56
2023/05/01 05:18:44;;;;;;;3.97;3.58;;;12.40;99.90;;;;;;5092589;28;20236;-57
2023/05/01 05:21:10;;;;;;;5.75;3.35;;;12.50;99.90;;;;;;5092307;28;20169;-57
2023/05/01 05:23:36;;;;;;;5.38;3.45;;;12.50;99.90;;;;;;5092477;28;20177;-56
2023/05/01 05:26:02;;;;;;;5.40;3.40;;;12.40;99.90;;;;;;5092434;28;20625;-52
2023/05/01 05:28:28;;;;;;;6.82;3.53;;;12.50;99.90;;;;;;5092448;28;20172;-52
2023/05/01 05:30:55;;;;;;;4.82;3.67;;;12.40;99.90;;;;;;5092230;28;20215;-53
2023/05/01 05:33:21;;;;;;;5.40;3.33;;;;;;;;;;5092116;28;20172;-46
2023/05/01 05:35:47;;;;;;;4.38;3.10;;;12.50;99.90;;;;;;5092362;28;20242;-51
2023/05/01 05:38:14;;;;;;;6.93;3.80;;;12.50;99.90;;;;;;5092233;28;20212;-49
2023/05/01 05:40:40;;;;;;;3.70;3.40;;;12.60;99.90;;;;;;5092281;28;20173;-49
2023/05/01 05:43:06;;;;;;;4.22;3.22;;;12.60;99.90;;;;;;5092227;28;20192;-50
2023/05/01 05:45:35;;;;;;;5.60;3.78;;;12.60;99.90;;;;;;5091828;28;20621;-50
2023/05/01 05:48:01;;;;;;;4.60;3.55;;;;;;;;;;5091823;28;20192;-57
2023/05/01 05:50:26;;;;;;;7.15;3.75;;;12.70;99.90;;;;;;5091919;28;20626;-51
2023/05/01 05:52:52;;;;;;;4.05;3.63;;;12.70;99.90;;;;;;5091844;28;20218;-55
2023/05/01 05:55:17;;;;;;;5.38;3.67;;;12.80;99.90;;;;;;5091938;28;20204;-52
2023/05/01 05:57:43;;;;;;;5.10;3.85;;;12.80;99.90;;;;;;5091311;28;20169;-53
2023/05/01 06:00:09;;;;;;;6.60;3.35;;;12.80;99.90;;;;;;5091751;28;20179;-47
2023/05/01 06:02:35;;;;;;;6.30;3.83;;;12.90;99.90;;;;;;5091653;28;20165;-57
2023/05/01 06:05:01;;;;;;;7.45;4.18;;;;;;;;;;5090635;28;20599;-55
2023/05/01 06:07:27;;;;;;;6.13;3.80;;;12.90;99.90;;;;;;5094623;28;20173;-57
2023/05/01 06:09:54;;;;;;;5.40;3.45;;;13.00;99.90;;;;;;5095458;28;20180;-57
2023/05/01 06:12:19;;;;;;;6.30;3.75;;;13.00;99.90;;;;;;5096103;28;20161;-52
2023/05/01 06:14:45;;;;;;;4.05;3.20;;;13.00;99.90;;;;;;5095924;28;20196;-55
2023/05/01 06:17:10;;;;;;;4.85;3.90;;;13.10;99.90;;;;;;5095687;28;20176;-57
2023/05/01 06:19:36;;;;;;;4.38;3.63;;;13.10;99.90;;;;;;5095694;28;20166;-57
2023/05/01 06:22:02;;;;;;;6.72;4.00;;;13.10;99.90;;;;;;5095688;28;20256;-54
2023/05/01 06:24:27;;;;;;;7.32;3.70;;;13.20;99.90;;;;;;5095808;28;20173;-55
2023/05/01 06:26:53;;;;;;;7.05;3.70;;;13.20;99.90;;;;;;5095945;28;20222;-55
2023/05/01 06:29:19;;;;;;;4.30;3.88;;;13.30;99.90;;;;;;5095955;28;20173;-57
2023/05/01 06:31:44;;;;;;;5.95;4.53;;;13.40;99.90;;;;;;5095506;28;20180;-56
2023/05/01 06:34:10;;;;;;;7.20;4.63;;;13.50;99.90;;;;;;5095476;28;20173;-57
2023/05/01 06:36:36;;;;;;;6.60;3.40;;;13.50;99.90;;;;;;5095573;28;20208;-57
2023/05/01 06:39:01;;;;;;;5.95;4.28;;;13.60;99.90;;;;;;5095388;28;20244;-55
2023/05/01 06:41:27;;;;;;;5.07;3.72;;;13.60;99.90;;;;;;5095372;28;20166;-55
2023/05/01 06:43:53;;;;;;;5.38;4.00;;;13.70;99.90;;;;;;5095260;28;20637;-57
2023/05/01 06:46:18;;;;;;;5.65;3.95;;;13.80;99.90;;;;;;5095625;28;20686;-49
2023/05/01 06:48:44;;;;;;;5.30;3.72;;;;;;;;;;5095156;28;20690;-54
2023/05/01 06:51:10;;;;;;;5.82;4.03;;;14.00;99.90;;;;;;5095129;28;20204;-49
2023/05/01 07:06:03;;;;;;;4.35;3.95;;;14.50;99.90;;;;;;5109378;27;20606;-54
2023/05/01 07:08:30;;;;;;;6.22;4.07;;;;;;;;;;5109333;28;20169;-52
2023/05/01 07:10:55;;;;;;;5.13;4.15;;;14.60;99.90;;;;;;5109512;28;20168;-55
2023/05/01 07:13:21;;;;;;;7.38;3.75;;;14.70;99.90;;;;;;5109083;28;20161;-50
2023/05/01 07:15:47;;;;;;;6.20;3.85;;;14.70;99.90;;;;;;5109355;28;20184;-51
2023/05/01 07:18:13;;;;;;;4.05;3.53;;;14.80;99.90;;;;;;5109518;28;20243;-47
2023/05/01 07:20:39;;;;;;;3.63;3.33;;;15.00;99.90;;;;;;5109394;28;20204;-46
2023/05/01 07:23:05;;;;;;;8.43;3.58;;;;;;;;;;5109120;28;20164;-52
2023/05/01 07:25:31;;;;;;;4.53;3.30;;;15.10;99.90;;;;;;5109354;28;20580;-50
2023/05/01 07:27:59;;;;;;;5.18;3.45;;;15.10;99.90;;;;;;5108913;28;20169;-48
2023/05/01 07:30:25;;;;;;;5.07;3.35;;;15.20;99.90;;;;;;5109156;28;20169;-53
2023/05/01 07:32:51;;;;;;;4.20;2.92;;;15.20;99.90;;;;;;5109122;28;20179;-48
2023/05/01 07:35:17;;;;;;;5.55;3.53;;;15.40;99.90;;;;;;5108630;28;20695;-55
2023/05/01 07:37:42;;;;;;;4.63;3.65;;;15.40;99.90;;;;;;5109257;28;20165;-57
2023/05/01 07:40:08;;;;;;;4.18;3.20;;;15.50;99.90;;;;;;5108786;28;20172;-51
2023/05/01 07:42:34;;;;;;;5.30;3.58;;;15.50;99.90;;;;;;5108578;28;20167;-57
2023/05/01 07:44:59;;;;;;;3.80;2.83;;;15.70;99.90;;;;;;5108923;28;20176;-57
2023/05/01 07:47:26;;;;;;;4.50;3.60;;;15.70;99.90;;;;;;5108564;28;20169;-55
2023/05/01 07:49:51;;;;;;;5.13;3.90;;;15.90;99.90;;;;;;5108430;28;20596;-57
2023/05/01 07:52:17;;;;;;;4.45;3.22;;;15.90;99.90;;;;;;5108662;28;20211;-55
2023/05/01 07:54:47;;;;;;;7.38;3.47;;;16.00;99.90;;;;;;5108674;28;20257;-55
2023/05/01 07:57:13;;;;;;;8.77;3.42;;;16.20;99.90;;;;;;5108755;28;20614;-52
2023/05/01 07:59:39;;;;;;;4.10;3.70;;;;;;;;;;5108577;28;20184;-56
2023/05/01 08:02:05;;;;;;;6.00;3.47;;;16.30;99.90;;;;;;5108551;28;20779;-55
2023/05/01 08:04:30;;;;;;;5.25;3.33;;;16.50;99.90;;;;;;5108219;28;20247;-53
2023/05/01 08:06:56;;;;;;;6.00;3.40;;;16.40;99.90;;;;;;5094576;28;20165;-56
2023/05/01 08:09:21;;;;;;;4.78;3.20;;;16.50;99.90;;;;;;5094855;28;20173;-57
2023/05/01 08:11:47;;;;;;;7.43;3.90;;;16.60;99.90;;;;;;5094758;28;20640;-52
2023/05/01 08:14:14;;;;;;;4.93;3.22;;;16.70;99.90;;;;;;5094685;28;20193;-53
2023/05/01 08:16:40;;;;;;;5.68;3.75;;;;;;;;;;5094386;28;20560;-54
2023/05/01 08:19:06;;;;;;;5.53;3.72;;;;;;;;;;5094331;28;20202;-52
2023/05/01 08:21:31;;;;;;;4.47;3.55;;;16.90;99.90;;;;;;5094253;28;20300;-50
2023/05/01 08:23:57;;;;;;;5.50;3.47;;;16.80;99.90;;;;;;5094262;28;20169;-52
2023/05/01 08:26:22;;;;;;;13.80;3.67;;;16.90;99.90;;;;;;5094268;28;20172;-51
2023/05/01 08:28:48;;;;;;;7.75;4.10;;;17.10;99.90;;;;;;5093995;28;20169;-51
2023/05/01 08:31:13;;;;;;;7.32;3.22;;;17.10;99.90;;;;;;5094465;28;20165;-56
2023/05/01 08:33:43;;;;;;;6.13;3.60;;;16.90;99.90;;;;;;5093931;28;20226;-50
2023/05/01 08:36:09;;;;;;;5.82;3.85;;;17.00;99.90;;;;;;5094101;28;20575;-53
2023/05/01 08:38:36;;;;;;;4.53;3.40;;;17.10;99.90;;;;;;5094066;28;20169;-56
2023/05/01 08:41:02;;;;;;;5.30;3.40;;;17.20;99.90;;;;;;5093780;28;20244;-51
2023/05/01 08:43:30;;;;;;;3.83;3.40;;;17.10;99.90;;;;;;5094170;28;20174;-55
2023/05/01 08:45:59;;;;;;;4.20;3.80;;;17.00;99.90;;;;;;5094075;28;20165;-48
2023/05/01 08:48:25;;;;;;;5.93;3.75;;;17.10;99.90;;;;;;5093932;28;20172;-56
2023/05/01 08:50:54;;;;;;;4.93;3.28;;;17.20;99.90;;;;;;5093602;28;20646;-48
2023/05/01 08:53:22;;;;;;;5.80;3.78;;;17.40;99.90;;;;;;5093579;28;20172;-44
2023/05/01 08:55:50;;;;;;;5.25;3.63;;;17.40;99.90;;;;;;5093807;28;20177;-47
2023/05/01 08:58:17;;;;;;;8.57;4.25;;;17.40;99.90;;;;;;5093869;28;20256;-56
2023/05/01 09:00:44;;;;;;;6.00;3.97;;;17.60;99.90;;;;;;5094230;28;20220;-45
2023/05/01 09:03:12;;;;;;;8.35;3.50;;;17.70;99.90;;;;;;5093021;28;20573;-53
2023/05/01 09:05:38;;;;;;;4.03;3.63;;;17.70;99.90;;;;;;5093412;28;20220;-54
2023/05/01 09:08:04;;;;;;;5.28;3.63;;;17.70;99.90;;;;;;5093341;28;20252;-53
2023/05/01 09:10:31;;;;;;;7.63;3.15;;;17.70;99.90;;;;;;5093406;28;20188;-52
2023/05/01 09:13:02;;;;;;;4.15;3.40;;;17.80;99.90;;;;;;5092855;28;20218;-50
2023/05/01 09:15:29;;;;;;;4.00;3.30;;;17.80;99.90;;;;;;5093316;28;20208;-54
2023/05/01 09:17:56;;;;;;;5.63;3.78;;;18.20;99.90;;;;;;5091945;28;20169;-53
2023/05/01 09:20:22;;;;;;;5.57;3.88;;;18.10;99.90;;;;;;5093469;28;20181;-46
2023/05/01 09:22:49;;;;;;;4.13;3.72;;;17.90;99.90;;;;;;5074958;28;20634;-49
2023/05/01 09:25:15;;;;;;;6.95;4.15;;;;;;;;;;5093558;28;20172;-51
2023/05/01 09:27:40;;;;;;;9.55;3.95;;;18.40;99.90;;;;;;5093267;28;20168;-55
2023/05/01 09:30:07;;;;;;;6.95;3.63;;;18.50;99.90;;;;;;5092845;28;20161;-52
2023/05/01 09:32:33;;;;;;;4.78;3.60;;;18.90;99.90;;;;;;5093153;28;20196;-51
2023/05/01 09:35:13;;;;;;;7.28;4.10;;;19.20;99.90;;;;;;5092780;28;20670;-48
2023/05/01 09:37:39;;;;;;;4.82;3.45;;;19.10;99.90;;;;;;5092742;28;20637;-53
2023/05/01 09:40:07;;;;;;;4.85;3.33;;;19.50;99.90;;;;;;5092770;28;20240;-50
2023/05/01 09:42:50;;;;;;;6.00;3.70;;;19.80;99.90;;;;;;5093107;28;20168;-51
2023/05/01 09:45:17;;;;;;;5.13;3.50;;;19.50;99.90;;;;;;5092896;28;20177;-52
2023/05/01 09:47:44;;;;;;;3.33;2.95;;;;;;;;;;5092859;28;20642;-49
2023/05/01 09:50:27;;;;;;;6.28;3.95;;;19.80;99.90;;;;;;5092872;28;20162;-53
2023/05/01 09:52:53;;;;;;;5.43;3.60;;;20.00;99.90;;;;;;5092846;28;20169;-54
2023/05/01 09:55:19;;;;;;;7.15;3.70;;;;;;;;;;5092451;28;20541;-45
2023/05/01 09:57:46;;;;;;;4.25;3.78;;;20.30;99.90;;;;;;5092470;28;20617;-44
2023/05/01 10:00:14;;;;;;;5.15;3.70;;;20.00;99.90;;;;;;5092678;28;20641;-44
2023/05/01 10:02:49;;;;;;;5.35;3.63;;;19.90;99.90;;;;;;5093092;28;20218;-44
2023/05/01 10:05:15;;;;;;;6.95;3.92;;;19.70;99.90;;;;;;5091958;28;20223;-44
2023/05/01 10:08:03;;;;;;;5.88;3.50;;;20.10;99.90;;;;;;5093066;28;20173;-44
2023/05/01 10:10:29;;;;;;;5.60;3.50;;;20.20;99.90;;;;;;5092528;28;20215;-44
2023/05/01 10:12:55;;;;;;;4.45;3.35;;;20.40;99.90;;;;;;5092507;28;20169;-45
2023/05/01 10:15:21;;;;;;;4.25;3.45;;;20.60;99.90;;;;;;5092661;28;20205;-44
2023/05/01 10:17:52;;;;;;;4.47;3.30;;;20.80;99.90;;;;;;5092486;28;20169;-44
2023/05/01 10:20:17;;;;;;;4.70;3.33;;;20.80;99.90;;;;;;5092237;28;20169;-47
2023/05/01 10:22:43;;;;;;;4.18;3.17;;;20.70;99.90;;;;;;5092404;28;20161;-44
2023/05/01 10:25:13;;;;;;;8.43;3.70;;;20.80;99.90;;;;;;5092393;28;20653;-44
2023/05/01 10:27:42;;;;;;;5.25;3.83;;;20.70;99.90;;;;;;5092162;28;20170;-45
2023/05/01 10:30:08;;;;;;;5.03;3.13;;;20.80;99.90;;;;;;5092316;28;20166;-45
2023/05/01 10:32:36;;;;;;;4.88;2.95;;;20.90;99.90;;;;;;5091507;28;20714;-44
2023/05/01 10:35:07;;;;;;;5.57;2.88;;;20.80;99.90;;;;;;5092090;28;20223;-44
2023/05/01 10:37:58;;;;;;;5.38;3.60;;;21.00;99.90;;;;;;5091558;28;20169;-44
2023/05/01 10:40:42;;;;;;;5.00;2.97;;;20.80;99.90;;;;;;5088687;28;20181;-44
2023/05/01 10:43:27;;;;;;;4.28;3.30;;;20.90;99.90;;;;;;5091744;28;20162;-44
2023/05/01 10:46:15;;;;;;;5.43;3.60;;;21.00;99.90;;;;;;5091473;28;20648;-47
2023/05/01 10:48:43;;;;;;;6.95;3.20;;;20.90;99.90;;;;;;5092125;28;20310;-48
2023/05/01 10:51:14;;;;;;;4.05;3.30;;;21.00;99.90;;;;;;5092183;28;20271;-44
2023/05/01 10:53:41;;;;;;;6.13;3.70;;;21.20;99.90;;;;;;5092523;28;20566;-46
2023/05/01 10:56:31;;;;;;;6.80;3.85;;;21.30;99.90;;;;;;5092181;28;20640;-45
2023/05/01 10:59:04;;;;;;;5.68;3.92;;;21.20;99.90;;;;;;5091648;28;20540;-45
2023/05/01 11:01:35;;;;;;;4.85;3.72;;;21.40;99.90;;;;;;5091243;28;20172;-44
2023/05/01 11:04:03;;;;;;;4.75;3.70;;;21.40;99.90;;;;;;5088589;28;20220;-45
2023/05/01 11:06:29;;;;;;;4.10;3.58;;;21.40;99.90;;;;;;5090147;28;20157;-46
2023/05/01 11:08:56;;;;;;;4.15;3.40;;;21.20;99.90;;;;;;5089295;28;20189;-51
2023/05/01 11:11:25;;;;;;;6.15;3.72;;;21.20;99.90;;;;;;5089983;28;20521;-46
2023/05/01 11:14:03;;;;;;;5.00;3.80;;;21.20;99.90;;;;;;5090460;28;20672;-46
2023/05/01 11:16:45;;;;;;;4.90;3.35;;;21.10;99.90;;;;;;5090119;28;20696;-45
2023/05/01 11:19:10;;;;;;;5.70;3.70;;;20.90;99.90;;;;;;5090802;28;20173;-48
2023/05/01 11:21:39;;;;;;;6.82;3.60;;;20.80;99.90;;;;;;5090421;28;20626;-46
2023/05/01 11:24:05;;;;;;;4.40;3.38;;;20.60;99.90;;;;;;5090232;28;20233;-45
2023/05/01 11:26:31;;;;;;;3.70;3.28;;;20.50;99.90;;;;;;5091151;28;20261;-45
2023/05/01 11:28:59;;;;;;;4.50;3.30;;;20.30;99.90;;;;;;5091415;28;20201;-46
2023/05/01 11:31:25;;;;;;;4.03;3.65;;;20.20;99.90;;;;;;5090936;28;20650;-46
2023/05/01 11:33:51;;;;;;;10.45;3.38;;;20.30;99.90;;;;;;5090515;28;20213;-45
2023/05/01 11:36:18;;;;;;;4.88;3.47;;;20.40;99.90;;;;;;5088560;28;20174;-47
2023/05/01 11:39:00;;;;;;;3.70;3.20;;;20.60;99.90;;;;;;5083762;28;20176;-46
2023/05/01 11:41:26;;;;;;;3.65;3.30;;;20.50;99.90;;;;;;5109996;28;20172;-46
2023/05/01 11:44:02;;;;;;;3.45;3.10;;;20.50;99.90;;;;;;5096322;28;20169;-48
2023/05/01 11:46:32;;;;;;;4.60;2.58;;;20.90;99.90;;;;;;5094251;28;20637;-48
2023/05/01 11:49:02;;;;;;;2.67;2.08;;;20.80;98.40;;;;;;5094798;28;20173;-46
2023/05/01 11:51:29;;;;;;;3.80;2.67;;;21.10;99.70;;;;;;5094635;28;20351;-47
2023/05/01 11:54:06;;;;;;;8.38;5.28;;;21.30;97.20;;;;;;5094353;28;21827;-47
2023/05/01 11:56:33;;;;;;;3.03;2.15;;;21.70;95.40;;;;;;5093250;28;20181;-52
2023/05/01 11:59:12;;;;;;;2.63;2.30;;;22.00;97.60;;;;;;5092346;28;20185;-51
2023/05/01 12:01:39;;;;;;;3.50;2.80;;;22.40;95.20;;;;;;5089217;28;20177;-47
2023/05/01 12:04:07;;;;;;;4.40;2.20;;;22.50;93.60;;;;;;5092609;28;20213;-46
2023/05/01 12:06:39;;;;;;;7.60;2.83;;;22.20;93.40;;;;;;5091480;28;20189;-46
2023/05/01 12:09:07;;;;;;;6.13;2.97;;;22.30;94.10;;;;;;5093462;28;20208;-51
2023/05/01 12:11:34;;;;;;;7.25;3.72;;;22.80;92.30;;;;;;5090400;28;20237;-45
2023/05/01 12:14:01;;;;;;;4.93;3.10;;;;;;;;;;5091550;28;20224;-45
2023/05/01 12:16:28;;;;;;;3.95;3.22;;;;;;;;;;5093118;28;20604;-45
2023/05/01 12:18:54;;;;;;;6.43;2.83;;;22.60;91.90;;;;;;5092081;28;20702;-46
2023/05/01 12:21:21;;;;;;;5.28;4.32;;;22.20;91.90;;;;;;5096451;28;20188;-54
2023/05/01 12:23:48;;;;;;;3.10;2.33;;;22.00;93.00;;;;;;5082384;28;20265;-46
2023/05/01 12:26:18;;;;;;;4.55;3.20;;;21.60;95.50;;;;;;5092891;28;20187;-49
2023/05/01 12:28:53;;;;;;;6.68;2.47;;;21.60;99.20;;;;;;5090287;28;20204;-46
2023/05/01 12:31:19;;;;;;;4.10;2.53;;;;;;;;;;5092897;28;20586;-49
2023/05/01 12:33:56;;;;;;;4.45;2.55;;;21.40;98.70;;;;;;5088036;28;20185;-50
2023/05/01 12:36:24;;;;;;;6.70;2.92;;;21.40;97.00;;;;;;5091580;28;20181;-48
2023/05/01 12:39:06;;;;;;;5.35;2.60;;;21.70;94.90;;;;;;5087594;28;20214;-45
2023/05/01 12:41:44;;;;;;;3.10;2.05;;;22.20;93.90;;;;;;5089756;28;20200;-50
2023/05/01 12:44:22;;;;;;;3.05;2.17;;;22.50;96.70;;;;;;5090873;28;20691;-48
2023/05/01 12:47:05;;;;;;;3.33;2.30;;;22.30;91.90;;;;;;5091327;28;20164;-45
2023/05/01 12:49:31;;;;;;;3.55;2.00;;;;;;;;;;5089237;28;20230;-52
2023/05/01 12:51:59;;;;;;;2.58;1.90;;;22.30;91.60;;;;;;5089878;28;20181;-46
2023/05/01 12:54:30;;;;;;;2.05;1.92;;;21.90;90.60;;;;;;5091009;28;20236;-54
2023/05/01 12:57:04;;;;;;;2.88;2.10;;;22.00;88.90;;;;;;5092624;28;20659;-51
2023/05/01 12:59:30;;;;;;;2.60;2.15;;;21.80;90.30;;;;;;5090681;28;20181;-54
2023/05/01 13:02:00;;;;;;;3.20;1.90;;;21.70;91.40;;;;;;5092626;28;20507;-46
2023/05/01 13:04:27;;;;;;;3.15;2.10;;;21.50;92.10;;;;;;5091143;28;20308;-52
2023/05/01 13:06:56;;;;;;;2.58;1.92;;;21.40;94.60;;;;;;5092146;28;20174;-50
2023/05/01 13:09:26;;;;;;;3.85;2.65;;;20.80;95.10;;;;;;5092300;28;20173;-46
2023/05/01 13:12:04;;;;;;;3.20;2.30;;;19.80;93.50;;;;;;5092280;28;20419;-51